createdAt,value
2022-10-18T00:00:56.568Z,79.10
2022-10-18T00:03:23.873Z,79.00
2022-10-18T00:05:51.473Z,78.90
2022-10-18T00:08:24.599Z,78.90
2022-10-18T00:10:51.571Z,78.80
2022-10-18T00:13:23.001Z,78.70
2022-10-18T00:15:58.323Z,78.70
2022-10-18T00:18:25.617Z,78.80
2022-10-18T00:21:09.708Z,78.60
2022-10-18T00:23:36.989Z,78.60
2022-10-18T00:26:24.178Z,78.40
2022-10-18T00:28:55.548Z,78.50
2022-10-18T00:31:35.766Z,78.20
2022-10-18T00:34:10.624Z,78.10
2022-10-18T00:36:37.981Z,78.00
2022-10-18T00:39:07.075Z,78.10
2022-10-18T00:41:36.504Z,78.10
2022-10-18T00:44:26.895Z,78.00
2022-10-18T00:47:00.551Z,78.30
2022-10-18T00:49:39.912Z,78.00
2022-10-18T00:52:15.465Z,78.10
2022-10-18T00:54:44.847Z,78.00
2022-10-18T00:57:12.852Z,77.90
2022-10-18T00:59:41.372Z,77.90
2022-10-18T01:02:08.931Z,77.90
2022-10-18T01:04:36.432Z,77.90
2022-10-18T01:07:27.305Z,78.00
2022-10-18T01:10:27.296Z,78.60
2022-10-18T01:13:51.337Z,78.80
2022-10-18T01:16:38.428Z,78.70
2022-10-18T01:19:26.592Z,79.00
2022-10-18T01:22:05.710Z,79.40
2022-10-18T01:24:54.846Z,79.00
2022-10-18T01:27:49.169Z,79.50
2022-10-18T01:30:32.801Z,80.00
2022-10-18T01:33:25.654Z,80.60
2022-10-18T01:36:15.659Z,80.80
2022-10-18T01:38:44.189Z,80.80
2022-10-18T01:41:15.721Z,80.50
2022-10-18T01:43:45.498Z,80.50
2022-10-18T01:46:18.396Z,80.30
2022-10-18T01:48:46.099Z,80.50
2022-10-18T01:51:12.899Z,80.40
2022-10-18T01:53:40.334Z,80.40
2022-10-18T01:56:34.133Z,80.40
2022-10-18T01:59:34.864Z,80.40
2022-10-18T02:02:44.304Z,80.40
2022-10-18T02:05:46.577Z,80.20
2022-10-18T02:08:42.962Z,80.10
2022-10-18T02:11:13.797Z,79.80
2022-10-18T02:14:13.259Z,79.60
2022-10-18T02:16:49.997Z,79.90
2022-10-18T02:19:41.151Z,79.50
2022-10-18T02:22:11.210Z,79.50
2022-10-18T02:24:45.023Z,79.30
2022-10-18T02:27:12.458Z,79.30
2022-10-18T02:29:41.064Z,79.10
2022-10-18T02:32:30.920Z,79.10
2022-10-18T02:35:20.563Z,79.20
2022-10-18T02:37:49.286Z,79.20
2022-10-18T02:40:20.290Z,78.90
2022-10-18T02:42:55.619Z,78.90
2022-10-18T02:48:14.600Z,78.70
2022-10-18T02:50:41.535Z,78.70
2022-10-18T02:53:08.620Z,78.60
2022-10-18T02:55:35.620Z,78.60
2022-10-18T02:58:02.532Z,78.60
2022-10-18T03:00:29.349Z,78.60
2022-10-18T03:02:56.760Z,78.40
2022-10-18T03:05:23.628Z,78.50
2022-10-18T03:07:51.115Z,78.40
2022-10-18T03:10:17.984Z,78.40
2022-10-18T03:12:44.895Z,78.40
2022-10-18T03:15:12.027Z,78.40
2022-10-18T03:17:38.894Z,78.40
2022-10-18T03:20:06.594Z,78.30
2022-10-18T03:22:39.682Z,78.30
2022-10-18T03:25:09.654Z,78.30
2022-10-18T03:30:27.860Z,78.70
2022-10-18T03:32:54.777Z,79.20
2022-10-18T03:35:22.425Z,79.30
2022-10-18T03:37:49.642Z,79.40
2022-10-18T03:40:17.106Z,79.60
2022-10-18T03:42:44.261Z,79.70
2022-10-18T03:45:11.288Z,79.80
2022-10-18T03:47:38.235Z,80.00
2022-10-18T03:50:05.933Z,80.00
2022-10-18T03:52:33.626Z,80.20
2022-10-18T03:55:00.829Z,80.30
2022-10-18T03:57:27.793Z,80.40
2022-10-18T03:59:54.715Z,80.50
2022-10-18T04:02:21.669Z,80.40
2022-10-18T04:04:49.445Z,80.70
2022-10-18T04:07:16.333Z,80.70
2022-10-18T04:09:43.211Z,80.80
2022-10-18T04:12:10.142Z,80.90
2022-10-18T04:14:37.192Z,81.00
2022-10-18T04:17:05.156Z,81.10
2022-10-18T04:19:32.077Z,81.10
2022-10-18T04:21:59.354Z,81.20
2022-10-18T04:24:26.381Z,81.20
2022-10-18T04:26:53.475Z,81.20
2022-10-18T04:29:20.332Z,81.20
2022-10-18T04:31:47.225Z,81.40
2022-10-18T04:34:14.412Z,81.50
2022-10-18T04:36:41.292Z,81.60
2022-10-18T04:39:08.147Z,81.70
2022-10-18T04:41:35.339Z,81.70
2022-10-18T04:44:02.190Z,81.70
2022-10-18T04:46:29.227Z,81.70
2022-10-18T04:48:56.182Z,81.70
2022-10-18T04:51:23.144Z,81.80
2022-10-18T04:53:50.167Z,82.00
2022-10-18T04:56:17.031Z,82.00
2022-10-18T04:58:43.824Z,82.00
2022-10-18T05:01:11.126Z,81.90
2022-10-18T05:03:38.135Z,82.00
2022-10-18T05:06:05.807Z,82.10
2022-10-18T05:08:35.286Z,82.00
2022-10-18T05:11:03.748Z,81.90
2022-10-18T05:16:21.853Z,81.50
2022-10-18T05:18:48.879Z,81.30
2022-10-18T05:21:16.767Z,81.10
2022-10-18T05:23:43.629Z,81.10
2022-10-18T05:26:11.285Z,81.10
2022-10-18T05:28:40.243Z,81.10
2022-10-18T05:31:09.833Z,81.20
2022-10-18T05:33:36.918Z,81.30
2022-10-18T05:36:04.336Z,81.30
2022-10-18T05:38:31.451Z,81.20
2022-10-18T05:40:59.474Z,81.20
2022-10-18T05:43:29.802Z,81.30
2022-10-18T05:45:57.073Z,81.50
2022-10-18T05:48:24.678Z,81.50
2022-10-18T05:50:51.769Z,81.60
2022-10-18T05:53:35.618Z,81.60
2022-10-18T05:56:05.504Z,81.80
2022-10-18T05:58:32.470Z,81.80
2022-10-18T06:01:04.753Z,81.80
2022-10-18T06:03:32.678Z,81.90
2022-10-18T06:06:00.944Z,81.90
2022-10-18T06:08:27.908Z,81.90
2022-10-18T06:10:54.730Z,81.90
2022-10-18T06:13:21.911Z,82.00
2022-10-18T06:15:49.073Z,82.00
2022-10-18T06:18:16.457Z,82.10
2022-10-18T06:20:43.242Z,82.30
2022-10-18T06:23:10.204Z,82.30
2022-10-18T06:25:37.119Z,82.50
2022-10-18T06:28:10.137Z,82.60
2022-10-18T06:30:39.028Z,82.90
2022-10-18T06:33:05.974Z,82.90
2022-10-18T06:35:33.899Z,83.20
2022-10-18T06:38:00.989Z,83.30
2022-10-18T06:40:27.769Z,83.50
2022-10-18T06:43:00.515Z,83.90
2022-10-18T06:45:37.437Z,84.00
2022-10-18T06:48:04.618Z,84.10
2022-10-18T06:50:31.815Z,84.20
2022-10-18T06:52:58.993Z,84.50
2022-10-18T06:55:26.021Z,84.70
2022-10-18T06:57:53.587Z,84.90
2022-10-18T07:00:20.506Z,85.30
2022-10-18T07:02:47.564Z,85.40
2022-10-18T07:05:14.414Z,85.70
2022-10-18T07:07:41.314Z,86.60
2022-10-18T07:10:12.622Z,85.90
2022-10-18T07:12:39.732Z,86.00
2022-10-18T07:15:09.542Z,86.10
2022-10-18T07:17:37.069Z,86.20
2022-10-18T07:20:04.287Z,86.30
2022-10-18T07:22:31.301Z,86.30
2022-10-18T07:24:58.119Z,86.50
2022-10-18T07:27:25.171Z,86.50
2022-10-18T07:29:52.294Z,86.60
2022-10-18T07:32:19.488Z,86.70
2022-10-18T07:34:46.574Z,87.10
2022-10-18T07:37:13.522Z,87.50
2022-10-18T07:39:40.643Z,87.60
2022-10-18T07:42:07.652Z,87.70
2022-10-18T07:44:34.639Z,87.70
2022-10-18T07:47:01.776Z,87.80
2022-10-18T07:49:28.918Z,88.00
2022-10-18T07:51:55.893Z,88.50
2022-10-18T07:54:22.910Z,88.60
2022-10-18T07:56:49.765Z,88.70
2022-10-18T07:59:16.778Z,88.80
2022-10-18T08:01:43.900Z,88.80
2022-10-18T08:04:16.074Z,88.90
2022-10-18T08:06:43.545Z,89.00
2022-10-18T08:09:10.554Z,89.00
2022-10-18T08:11:37.425Z,89.10
2022-10-18T08:14:04.449Z,89.10
2022-10-18T08:18:59.790Z,89.30
2022-10-18T08:21:27.409Z,89.30
2022-10-18T08:23:54.407Z,89.10
2022-10-18T08:26:23.322Z,89.20
2022-10-18T08:29:03.641Z,89.20
2022-10-18T08:31:38.145Z,89.20
2022-10-18T08:34:05.202Z,89.00
2022-10-18T08:36:32.229Z,89.00
2022-10-18T08:38:59.411Z,89.00
2022-10-18T08:41:39.012Z,89.20
2022-10-18T08:44:19.768Z,89.70
2022-10-18T08:46:51.356Z,89.40
2022-10-18T08:49:47.135Z,89.50
2022-10-18T08:52:41.700Z,90.00
2022-10-18T08:55:36.484Z,90.10
2022-10-18T08:58:15.120Z,90.00
2022-10-18T09:00:58.679Z,90.00
2022-10-18T09:04:13.430Z,90.10
2022-10-18T09:07:08.139Z,90.30
2022-10-18T09:10:33.802Z,90.50
2022-10-18T09:13:41.250Z,90.50
2022-10-18T09:16:22.366Z,90.50
2022-10-18T09:19:30.933Z,90.40
2022-10-18T09:22:17.624Z,90.20
2022-10-18T09:25:22.888Z,90.70
2022-10-18T09:27:55.153Z,90.50
2022-10-18T09:31:09.621Z,90.40
2022-10-18T09:33:53.659Z,90.80
2022-10-18T09:36:30.490Z,90.70
2022-10-18T09:39:03.780Z,90.90
2022-10-18T09:41:53.772Z,91.00
2022-10-18T09:44:30.606Z,91.40
2022-10-18T09:47:13.411Z,91.40
2022-10-18T09:49:48.012Z,91.60
2022-10-18T09:52:39.903Z,91.80
2022-10-18T09:55:20.686Z,92.00
2022-10-18T09:57:53.635Z,92.10
2022-10-18T10:00:31.730Z,92.20
2022-10-18T10:03:01.914Z,92.30
2022-10-18T10:05:28.927Z,92.50
2022-10-18T10:08:02.038Z,92.50
2022-10-18T10:10:31.651Z,92.70
2022-10-18T10:13:26.332Z,92.70
2022-10-18T10:16:03.676Z,93.30
2022-10-18T10:18:40.312Z,93.20
2022-10-18T10:21:13.718Z,93.40
2022-10-18T10:24:07.167Z,94.10
2022-10-18T10:26:36.549Z,93.70
2022-10-18T10:29:04.408Z,93.50
2022-10-18T10:31:33.807Z,93.60
2022-10-18T10:34:14.725Z,93.70
2022-10-18T10:36:51.371Z,93.90
2022-10-18T10:39:20.885Z,94.00
2022-10-18T10:41:50.783Z,94.10
2022-10-18T10:44:24.470Z,94.30
2022-10-18T10:46:52.572Z,94.30
2022-10-18T10:49:44.086Z,94.50
2022-10-18T10:52:28.613Z,94.60
2022-10-18T10:57:48.149Z,94.90
2022-10-18T11:00:33.862Z,95.00
2022-10-18T11:03:28.005Z,95.30
2022-10-18T11:05:57.840Z,95.20
2022-10-18T11:08:30.414Z,95.20
2022-10-18T11:11:27.697Z,95.30
2022-10-18T11:14:24.566Z,95.40
2022-10-18T11:17:12.171Z,95.60
2022-10-18T11:20:06.875Z,95.70
2022-10-18T11:22:41.526Z,95.80
2022-10-18T11:25:15.988Z,95.80
2022-10-18T11:28:49.912Z,96.00
2022-10-18T11:32:00.548Z,96.30
2022-10-18T11:38:45.937Z,96.50
2022-10-18T11:41:36.556Z,96.50
2022-10-18T11:44:21.217Z,96.90
2022-10-18T11:47:08.292Z,96.50
2022-10-18T11:50:12.822Z,96.70
2022-10-18T11:52:50.075Z,96.80
2022-10-18T11:55:47.261Z,97.00
2022-10-18T11:58:48.961Z,97.50
2022-10-18T12:01:38.556Z,97.30
2022-10-18T12:04:17.855Z,97.50
2022-10-18T12:06:49.015Z,97.40
2022-10-18T12:09:27.920Z,97.20
2022-10-18T12:12:06.648Z,97.20
2022-10-18T12:14:40.817Z,97.30
2022-10-18T12:17:42.071Z,97.20
2022-10-18T12:20:36.073Z,97.40
2022-10-18T12:23:13.561Z,97.70
2022-10-18T12:25:46.010Z,97.50
2022-10-18T12:29:16.807Z,97.50
2022-10-18T12:31:50.435Z,98.00
2022-10-18T12:34:23.598Z,97.70
2022-10-18T12:37:21.565Z,97.90
2022-10-18T12:40:18.501Z,98.40
2022-10-18T12:42:50.727Z,98.10
2022-10-18T12:45:35.253Z,98.00
2022-10-18T12:48:27.985Z,98.10
2022-10-18T12:51:04.863Z,98.20
2022-10-18T12:53:33.544Z,97.80
2022-10-18T12:56:28.339Z,97.80
2022-10-18T12:59:17.096Z,98.20
2022-10-18T13:01:53.518Z,98.20
2022-10-18T13:04:40.605Z,98.10
2022-10-18T13:07:11.923Z,99.20
2022-10-18T13:10:16.387Z,98.10
2022-10-18T13:13:39.228Z,98.00
2022-10-18T13:16:38.207Z,98.50
2022-10-18T13:19:20.821Z,98.40
2022-10-18T13:21:59.005Z,98.70
2022-10-18T13:25:04.245Z,98.50
2022-10-18T13:28:02.554Z,98.90
2022-10-18T13:31:27.661Z,98.70
2022-10-18T13:33:54.895Z,99.00
2022-10-18T13:36:29.539Z,98.90
2022-10-18T13:38:57.592Z,99.00
2022-10-18T13:41:43.538Z,99.20
2022-10-18T13:44:33.268Z,99.80
2022-10-18T13:47:32.678Z,99.50
2022-10-18T13:50:17.250Z,99.30
2022-10-18T13:53:02.415Z,99.10
2022-10-18T13:55:44.655Z,99.20
2022-10-18T13:59:05.703Z,99.10
2022-10-18T14:02:10.316Z,99.70
2022-10-18T14:05:42.009Z,99.90
2022-10-18T14:08:52.292Z,99.90
2022-10-18T14:14:38.182Z,99.50
2022-10-18T14:17:29.990Z,99.20
2022-10-18T14:20:01.699Z,99.20
2022-10-18T14:22:46.563Z,98.70
2022-10-18T14:25:26.801Z,98.80
2022-10-18T14:28:27.342Z,98.90
2022-10-18T14:31:07.394Z,99.30
2022-10-18T14:33:57.912Z,99.30
2022-10-18T14:36:30.397Z,99.50
2022-10-18T14:39:03.695Z,99.50
2022-10-18T14:41:37.564Z,99.40
2022-10-18T14:44:19.289Z,99.20
2022-10-18T14:46:59.908Z,99.20
2022-10-18T14:49:27.219Z,98.80
2022-10-18T14:51:58.687Z,98.70
2022-10-18T14:54:36.830Z,98.50
2022-10-18T14:57:05.846Z,98.20
2022-10-18T14:59:52.014Z,98.00
2022-10-18T15:02:25.857Z,97.60
2022-10-18T15:05:16.007Z,97.40
2022-10-18T15:07:43.931Z,97.20
2022-10-18T15:10:26.797Z,97.00
2022-10-18T15:13:18.903Z,96.80
2022-10-18T15:15:46.810Z,98.60
2022-10-18T15:18:23.986Z,96.70
2022-10-18T15:21:24.724Z,96.30
2022-10-18T15:23:54.143Z,96.10
2022-10-18T15:26:30.291Z,95.90
2022-10-18T15:29:01.458Z,95.80
2022-10-18T15:31:43.031Z,95.90
2022-10-18T15:34:26.120Z,96.00
2022-10-18T15:36:55.822Z,96.00
2022-10-18T15:39:31.007Z,95.90
2022-10-18T15:42:00.087Z,95.70
2022-10-18T15:44:34.644Z,95.60
2022-10-18T15:47:13.906Z,95.40
2022-10-18T15:49:51.444Z,95.50
2022-10-18T15:52:37.754Z,95.50
2022-10-18T15:55:30.103Z,95.50
2022-10-18T15:58:16.957Z,96.80
2022-10-18T16:00:47.442Z,95.70
2022-10-18T16:06:12.325Z,95.10
2022-10-18T16:08:49.093Z,95.10
2022-10-18T16:11:22.994Z,95.00
2022-10-18T16:13:54.016Z,94.90
2022-10-18T16:16:26.727Z,94.90
2022-10-18T16:18:53.846Z,94.80
2022-10-18T16:21:24.028Z,94.80
2022-10-18T16:23:51.521Z,94.70
2022-10-18T16:26:20.076Z,94.80
2022-10-18T16:28:49.217Z,94.70
2022-10-18T16:31:26.312Z,94.70
2022-10-18T16:33:54.957Z,95.00
2022-10-18T16:36:29.316Z,94.80
2022-10-18T16:39:09.882Z,94.80
2022-10-18T16:41:41.640Z,94.80
2022-10-18T16:44:08.833Z,94.90
2022-10-18T16:46:39.254Z,94.90
2022-10-18T16:49:07.685Z,94.80
2022-10-18T16:51:34.682Z,94.90
2022-10-18T16:54:01.858Z,95.00
2022-10-18T16:56:34.208Z,95.00
2022-10-18T16:59:05.161Z,95.00
2022-10-18T17:01:32.162Z,95.10
2022-10-18T17:03:59.064Z,95.10
2022-10-18T17:06:29.732Z,95.10
2022-10-18T17:08:57.355Z,95.10
2022-10-18T17:11:27.527Z,95.10
2022-10-18T17:13:55.037Z,95.10
2022-10-18T17:19:20.397Z,95.00
2022-10-18T17:21:47.415Z,95.00
2022-10-18T17:24:20.704Z,95.00
2022-10-18T17:27:12.435Z,95.00
2022-10-18T17:29:40.881Z,95.00
2022-10-18T17:35:24.827Z,94.80
2022-10-18T17:38:16.574Z,95.00
2022-10-18T17:40:43.512Z,95.00
2022-10-18T17:43:13.191Z,94.90
2022-10-18T17:46:05.229Z,94.90
2022-10-18T17:48:32.144Z,94.90
2022-10-18T17:50:59.314Z,94.80
2022-10-18T17:53:30.736Z,94.80
2022-10-18T17:56:02.401Z,94.80
2022-10-18T17:58:30.953Z,94.80
2022-10-18T18:01:15.797Z,94.70
2022-10-18T18:03:47.804Z,94.80
2022-10-18T18:06:40.878Z,94.70
2022-10-18T18:09:11.622Z,94.80
2022-10-18T18:11:42.263Z,94.80
2022-10-18T18:14:11.193Z,94.80
2022-10-18T18:16:45.166Z,94.80
2022-10-18T18:19:17.499Z,94.80
2022-10-18T18:21:44.788Z,94.80
2022-10-18T18:24:13.971Z,94.90
2022-10-18T18:26:42.826Z,94.80
2022-10-18T18:29:12.538Z,94.80
2022-10-18T18:31:43.441Z,94.80
2022-10-18T18:34:11.564Z,94.90
2022-10-18T18:36:39.538Z,94.80
2022-10-18T18:39:07.255Z,94.80
2022-10-18T18:41:34.809Z,94.90
2022-10-18T18:44:04.959Z,94.90
2022-10-18T18:46:39.341Z,95.00
2022-10-18T18:49:07.839Z,95.10
2022-10-18T18:51:37.981Z,95.20
2022-10-18T18:54:06.087Z,95.30
2022-10-18T18:56:33.355Z,95.20
2022-10-18T18:59:00.697Z,95.10
2022-10-18T19:01:32.102Z,95.10
2022-10-18T19:04:00.260Z,95.00
2022-10-18T19:06:39.551Z,95.00
2022-10-18T19:09:19.717Z,95.00
2022-10-18T19:11:49.152Z,95.00
2022-10-18T19:14:16.713Z,95.00
2022-10-18T19:16:48.825Z,94.90
2022-10-18T19:19:19.943Z,94.90
2022-10-18T19:21:52.570Z,94.80
2022-10-18T19:24:21.720Z,94.70
2022-10-18T19:27:04.841Z,94.60
2022-10-18T19:29:38.144Z,94.60
2022-10-18T19:32:12.228Z,94.60
2022-10-18T19:34:39.585Z,94.50
2022-10-18T19:37:06.572Z,94.40
2022-10-18T19:39:35.161Z,94.40
2022-10-18T19:42:06.624Z,94.30
2022-10-18T19:44:35.974Z,94.20
2022-10-18T19:47:10.120Z,94.20
2022-10-18T19:49:38.777Z,94.10
2022-10-18T19:52:05.901Z,94.10
2022-10-18T19:54:57.936Z,94.10
2022-10-18T19:57:49.963Z,94.10
2022-10-18T20:03:10.462Z,94.00
2022-10-18T20:05:37.390Z,94.00
2022-10-18T20:08:04.408Z,94.00
2022-10-18T20:10:31.829Z,93.90
2022-10-18T20:12:59.191Z,93.90
2022-10-18T20:15:27.001Z,93.90
2022-10-18T20:17:54.198Z,93.90
2022-10-18T20:20:21.039Z,93.90
2022-10-18T20:22:48.127Z,93.90
2022-10-18T20:25:15.284Z,93.80
2022-10-18T20:27:42.079Z,93.90
2022-10-18T20:30:11.383Z,93.80
2022-10-18T20:32:38.651Z,93.80
2022-10-18T20:35:06.135Z,93.80
2022-10-18T20:37:33.938Z,93.80
2022-10-18T20:40:01.076Z,93.80
2022-10-18T20:42:27.954Z,93.80
2022-10-18T20:44:54.894Z,93.80
2022-10-18T20:47:22.009Z,93.80
2022-10-18T20:49:48.882Z,93.80
2022-10-18T20:52:16.107Z,93.80
2022-10-18T20:54:42.977Z,93.80
2022-10-18T20:57:09.980Z,93.80
2022-10-18T20:59:37.795Z,93.80
2022-10-18T21:02:04.671Z,93.70
2022-10-18T21:04:31.709Z,93.70
2022-10-18T21:07:00.405Z,93.70
2022-10-18T21:09:27.284Z,93.70
2022-10-18T21:11:54.612Z,93.70
2022-10-18T21:14:23.601Z,93.70
2022-10-18T21:16:52.347Z,93.70
2022-10-18T21:19:26.086Z,93.70
2022-10-18T21:21:57.239Z,93.60
2022-10-18T21:24:26.551Z,93.70
2022-10-18T21:26:53.582Z,93.70
2022-10-18T21:29:22.638Z,93.70
2022-10-18T21:31:53.869Z,93.70
2022-10-18T21:34:21.082Z,93.70
2022-10-18T21:36:48.732Z,93.80
2022-10-18T21:39:20.191Z,93.70
2022-10-18T21:41:47.521Z,93.70
2022-10-18T21:44:14.872Z,93.80
2022-10-18T21:46:46.856Z,93.80
2022-10-18T21:49:14.835Z,93.80
2022-10-18T21:51:42.780Z,93.80
2022-10-18T21:54:15.735Z,93.90
2022-10-18T21:56:43.186Z,93.90
2022-10-18T21:59:12.260Z,93.80
2022-10-18T22:01:40.725Z,93.80
2022-10-18T22:04:21.050Z,93.80
2022-10-18T22:06:48.309Z,93.70
2022-10-18T22:09:16.049Z,93.70
2022-10-18T22:11:48.019Z,93.70
2022-10-18T22:14:14.988Z,93.70
2022-10-18T22:16:42.267Z,93.70
2022-10-18T22:19:09.308Z,93.70
2022-10-18T22:21:36.293Z,93.70
2022-10-18T22:24:09.139Z,93.70
2022-10-18T22:26:39.346Z,93.70
2022-10-18T22:29:19.829Z,93.70
2022-10-18T22:31:53.386Z,93.70
2022-10-18T22:34:28.870Z,93.80
2022-10-18T22:39:47.746Z,93.90
2022-10-18T22:42:14.601Z,94.10
2022-10-18T22:47:33.016Z,94.40
2022-10-18T22:50:00.281Z,94.60
2022-10-18T22:52:27.085Z,94.60
2022-10-18T22:54:54.234Z,94.70
2022-10-18T22:57:21.096Z,94.80
2022-10-18T22:59:47.976Z,94.80
2022-10-18T23:02:15.068Z,94.90
2022-10-18T23:04:41.934Z,94.90
2022-10-18T23:07:08.893Z,94.90
2022-10-18T23:09:37.945Z,95.20
2022-10-18T23:12:04.828Z,94.90
2022-10-18T23:14:31.910Z,94.90
2022-10-18T23:16:59.093Z,94.90
2022-10-18T23:19:25.967Z,94.90
2022-10-18T23:21:53.140Z,94.90
2022-10-18T23:24:19.938Z,94.90
2022-10-18T23:26:50.735Z,94.90
2022-10-18T23:29:17.511Z,94.90
2022-10-18T23:31:44.574Z,94.90
2022-10-18T23:34:12.607Z,95.00
2022-10-18T23:36:39.535Z,94.90
2022-10-18T23:39:06.400Z,95.00
2022-10-18T23:41:36.946Z,95.00
2022-10-18T23:44:03.875Z,95.00
2022-10-18T23:46:30.692Z,95.00
2022-10-18T23:48:57.604Z,95.00
2022-10-18T23:51:24.400Z,95.00
2022-10-18T23:53:51.432Z,95.40
2022-10-18T23:56:19.140Z,95.00
2022-10-18T23:58:46.394Z,95.00
